Marysville, Idaho
Current Conditions -  °F | °C
As of 5:56 AM on Thursday 30 Oct 2014 (Local Time) from KDIJ Reporting Station
Overcast Overcast  
Wind Chill: 38°   Ceiling: 9000
Heat Index: 41°   Visibility: 10mi
Dew Point: 30°   Wind: 5mph
Humidity: 65%   Direction: NA
Pressure: 30.34"   Gusts: NA
Location:  44.0126°N, 111.37°W
Report Text: KDIJ 301156Z AUTO VRB04KT 10SM OVC090 05/M01 A3034 RMK AO2 50003 T00501011 10055 20011 SLP235
Loading
Personal Weather Stations






























Interactive Weather Map
Tropical Storm Tracking
New forecast layout! Learn more

10-Day Weather Forecast

Advertisements
Track Severe Weather on mobile